Time;durP1;ratioP1;P1;durP2;ratioP2;P2;SDS_P1;SDS_P2;PMS_P1;PMS_P2;Temp;Humidity;BMP_temperature;BMP_pressure;BME280_temperature;BME280_humidity;BME280_pressure;Samples;Min_cycle;Max_cycle;Signal;HPM_P1;HPM_P2
2022/11/17 00:02:24;;;;;;;16.87;14.10;;;;;;;8.36;93.80;99512.95;1742149;82;20933;-88
2022/11/17 00:04:51;;;;;;;17.55;13.65;;;;;;;8.38;93.88;99502.38;1742344;82;21004;-89
2022/11/17 00:07:18;;;;;;;17.80;14.75;;;;;;;8.41;93.82;99503.52;1742265;82;21259;-88
2022/11/17 00:09:44;;;;;;;17.98;15.75;;;;;;;8.42;93.71;99505.17;1742127;82;21008;-88
2022/11/17 00:14:55;;;;;;;20.75;16.25;;;;;;;8.43;93.50;99499.02;1742405;82;27539;-89
2022/11/17 00:17:23;;;;;;;19.65;15.70;;;;;;;8.42;93.60;99499.95;1742250;82;20984;-88
2022/11/17 00:22:36;;;;;;;20.35;16.30;;;;;;;8.39;93.55;99498.36;1742031;82;20977;-88
2022/11/17 00:25:03;;;;;;;22.27;17.30;;;;;;;8.39;93.67;99496.22;1742118;82;20897;-88
2022/11/17 00:27:31;;;;;;;21.20;16.23;;;;;;;8.39;93.82;99493.61;1742017;82;20901;-87
2022/11/17 00:29:59;;;;;;;20.62;17.10;;;;;;;8.41;93.97;99501.73;1742215;82;20865;-88
2022/11/17 00:35:11;;;;;;;26.05;16.90;;;;;;;8.47;94.04;99495.23;1742110;82;20877;-88
2022/11/17 00:38:14;;;;;;;21.23;16.30;;;;;;;8.50;94.06;99491.13;1742142;82;20953;-87
2022/11/17 00:40:08;;;;;;;29.18;21.00;;;;;;;8.50;93.98;99488.03;1738227;82;20980;-88
2022/11/17 00:42:37;;;;;;;22.07;17.30;;;;;;;8.54;94.02;99484.75;1742067;81;20961;-87
2022/11/17 00:45:05;;;;;;;47.67;31.93;;;;;;;8.57;93.92;99475.37;1742247;82;21151;-89
2022/11/17 00:47:35;;;;;;;25.50;19.85;;;;;;;8.59;93.93;99477.41;1742493;82;20870;-87
2022/11/17 00:50:01;;;;;;;28.87;18.95;;;;;;;8.61;93.90;99481.23;1742308;82;20853;-89
2022/11/17 00:52:27;;;;;;;27.73;19.50;;;;;;;8.61;93.76;99476.00;1742556;82;20953;-88
2022/11/17 00:54:54;;;;;;;31.15;21.30;;;;;;;8.62;93.81;99482.41;1742404;82;21003;-87
2022/11/17 00:57:20;;;;;;;27.50;21.37;;;;;;;8.65;93.90;99476.98;1742332;82;21236;-87
2022/11/17 00:59:47;;;;;;;29.63;22.32;;;;;;;8.67;93.92;99484.25;1742236;82;21493;-86
2022/11/17 01:02:14;;;;;;;24.70;20.08;;;;;;;8.69;93.91;99478.45;1742134;82;21047;-88
2022/11/17 01:04:41;;;;;;;28.20;20.68;;;;;;;8.71;93.85;99476.56;1742641;82;21398;-87
2022/11/17 01:07:07;;;;;;;30.70;22.15;;;;;;;8.72;93.77;99477.39;1742262;82;20977;-87
2022/11/17 01:09:34;;;;;;;27.45;21.60;;;;;;;8.72;93.77;99477.39;1742322;82;21275;-88
2022/11/17 01:12:02;;;;;;;24.90;19.35;;;;;;;8.76;93.83;99472.76;1742062;82;20925;-88
2022/11/17 01:14:31;;;;;;;25.32;19.73;;;;;;;8.78;93.84;99470.88;1742186;82;20881;-87
2022/11/17 01:17:00;;;;;;;27.73;20.25;;;;;;;8.78;93.67;99472.18;1742086;82;21422;-88
2022/11/17 01:19:26;;;;;;;35.13;24.20;;;;;;;8.78;93.74;99470.42;1742312;82;20945;-88
2022/11/17 01:21:55;;;;;;;32.83;24.15;;;;;;;8.78;93.69;99465.20;1741893;82;22246;-88
2022/11/17 01:24:22;;;;;;;37.83;26.10;;;;;;;8.78;93.82;99475.66;1741868;82;21006;-88
2022/11/17 01:26:50;;;;;;;33.95;23.85;;;;;;;8.81;93.79;99475.91;1742023;82;21494;-88
2022/11/17 01:29:17;;;;;;;36.17;23.83;;;;;;;8.80;93.72;99464.59;1741988;82;20983;-88
2022/11/17 01:31:44;;;;;;;30.37;22.70;;;;;;;8.81;93.77;99471.50;1742068;82;20893;-87
2022/11/17 01:34:11;;;;;;;28.42;22.93;;;;;;;8.81;93.83;99468.06;1743055;82;21229;-88
2022/11/17 01:39:27;;;;;;;34.60;24.75;;;;;;;8.86;94.13;99462.02;1742335;82;20944;-87
2022/11/17 01:41:54;;;;;;;32.23;22.67;;;;;;;8.89;94.13;99464.41;1741905;82;21007;-87
2022/11/17 01:45:00;;;;;;;34.23;24.82;;;;;;;8.90;94.04;99459.55;1741931;82;20885;-87
2022/11/17 01:47:40;;;;;;;31.25;22.60;;;;;;;8.91;94.14;99456.84;1742398;82;21139;-86
2022/11/17 01:50:15;;;;;;;26.93;21.40;;;;;;;8.93;94.16;99454.09;1743090;82;20936;-87
2022/11/17 01:52:43;;;;;;;30.40;22.55;;;;;;;8.92;93.97;99451.13;1743334;82;20866;-87
2022/11/17 01:55:10;;;;;;;28.05;21.62;;;;;;;8.91;93.94;99447.69;1742984;82;20953;-87
2022/11/17 01:57:44;;;;;;;25.57;20.48;;;;;;;8.91;93.93;99444.22;1742673;82;20865;-86
2022/11/17 02:00:11;;;;;;;;;;;;;;;8.91;93.91;99446.83;1744600;82;21307;-87
2022/11/17 02:02:38;;;;;;;25.57;20.35;;;;;;;8.89;93.87;99446.96;1741992;82;20099;-86
2022/11/17 02:05:22;;;;;;;15.85;13.22;;;;;;;8.84;93.98;99441.20;1741832;82;20968;-87
2022/11/17 02:07:51;;;;;;;20.10;15.78;;;;;;;8.83;94.09;99437.42;1741986;82;20917;-86
2022/11/17 02:10:17;;;;;;;18.00;14.15;;;;;;;8.81;94.30;99436.22;1741997;82;20996;-86
2022/11/17 02:12:44;;;;;;;16.57;14.87;;;;;;;8.81;94.36;99436.22;1742047;82;21175;-86
2022/11/17 02:15:12;;;;;;;16.67;14.98;;;;;;;8.81;94.43;99434.91;1741769;82;20858;-87
2022/11/17 02:17:42;;;;;;;19.23;17.23;;;;;;;8.81;94.53;99428.38;1742030;82;20853;-88
2022/11/17 02:20:20;;;;;;;20.95;18.73;;;;;;;8.83;94.60;99421.73;1741900;82;20932;-86
2022/11/17 02:23:28;;;;;;;20.57;18.52;;;;;;;8.85;94.66;99419.84;1667520;85;21028;-86
2022/11/17 02:26:42;;;;;;;19.87;17.87;;;;;;;8.87;94.68;99416.63;1667614;85;21673;-87
2022/11/17 02:29:42;;;;;;;20.32;18.20;;;;;;;8.87;94.73;99411.39;1639091;86;21000;-86
2022/11/17 02:32:16;;;;;;;25.77;20.82;;;;;;;8.89;94.79;99403.83;1667782;86;20910;-87
2022/11/17 02:35:01;;;;;;;20.72;18.50;;;;;;;8.90;94.74;99404.66;1667941;86;20905;-87
2022/11/17 02:39:10;;;;;;;20.80;18.57;;;;;;;8.95;94.80;99401.70;1884306;75;22509;-86
2022/11/17 02:41:51;;;;;;;26.68;21.05;;;;;;;8.89;94.86;99405.13;1862667;77;20894;-86
2022/11/17 02:44:50;;;;;;;19.52;17.27;;;;;;;8.90;94.91;99400.73;1836714;77;21239;-86
2022/11/17 02:47:24;;;;;;;22.02;19.17;;;;;;;8.92;94.97;99397.53;1864190;77;20939;-87
2022/11/17 02:50:02;;;;;;;27.10;20.97;;;;;;;8.93;95.09;99396.58;1863846;77;20915;-85
2022/11/17 02:52:29;;;;;;;21.55;18.20;;;;;;;8.95;95.25;99403.01;1860785;77;20911;-88
2022/11/17 02:55:06;;;;;;;23.83;18.52;;;;;;;8.96;95.31;99396.81;1860905;76;20915;-87
2022/11/17 02:57:35;;;;;;;25.77;19.57;;;;;;;8.97;95.43;99399.33;1861000;77;21229;-87
2022/11/17 03:00:12;;;;;;;31.07;21.62;;;;;;;9.01;95.50;99402.09;1860833;76;20887;-87
2022/11/17 03:03:11;;;;;;;34.27;26.27;;;;;;;9.04;95.54;99400.55;1860463;77;20911;-87
2022/11/17 03:05:55;;;;;;;45.30;31.37;;;;;;;9.06;95.46;99397.83;1860759;77;21309;-87
2022/11/17 03:08:33;;;;;;;29.55;22.48;;;;;;;9.08;95.39;99401.99;1843126;76;20954;-86
2022/11/17 03:11:03;;;;;;;27.50;19.42;;;;;;;9.10;95.38;99394.05;1860522;76;21138;-86
2022/11/17 03:13:41;;;;;;;27.00;19.90;;;;;;;9.11;95.34;99391.77;1860715;77;20894;-86
2022/11/17 03:16:31;;;;;;;30.15;19.80;;;;;;;9.11;95.29;99392.63;1862550;77;20797;-84
2022/11/17 03:19:17;;;;;;;35.48;24.27;;;;;;;9.11;95.28;99393.08;1862353;76;20959;-86
2022/11/17 03:22:02;;;;;;;28.70;19.95;;;;;;;9.10;95.34;99381.80;1861131;76;21313;-85
2022/11/17 03:24:32;;;;;;;24.30;17.02;;;;;;;9.10;95.32;99380.48;1861582;77;21059;-86
2022/11/17 03:27:09;;;;;;;26.02;17.12;;;;;;;9.08;95.26;99381.55;1860820;76;21318;-87
2022/11/17 03:29:39;;;;;;;22.90;15.80;;;;;;;9.06;95.38;99384.27;1861049;77;21373;-85
2022/11/17 03:32:07;;;;;;;20.20;16.10;;;;;;;9.04;95.51;99384.86;1860982;77;21422;-88
2022/11/17 03:34:41;;;;;;;22.32;16.25;;;;;;;9.04;95.61;99386.64;1861116;77;20911;-85
2022/11/17 03:37:08;;;;;;;23.70;17.70;;;;;;;9.04;95.70;99385.34;1860238;77;21188;-86
2022/11/17 03:39:45;;;;;;;22.35;15.68;;;;;;;9.03;95.80;99382.38;1860931;77;20883;-87
2022/11/17 03:42:17;;;;;;;19.60;14.73;;;;;;;9.01;95.85;99377.25;1860783;76;20955;-87
2022/11/17 03:44:48;;;;;;;23.27;16.35;;;;;;;9.02;95.94;99380.20;1860756;76;20923;-87
2022/11/17 03:47:15;;;;;;;22.50;14.98;;;;;;;9.01;96.00;99382.95;1860881;77;20898;-87
2022/11/17 03:49:52;;;;;;;20.43;13.90;;;;;;;9.01;96.06;99390.80;1860327;76;21210;-86
2022/11/17 03:52:20;;;;;;;21.50;15.13;;;;;;;9.00;96.14;99393.87;1860056;77;21072;-87
2022/11/17 03:54:48;;;;;;;22.17;14.13;;;;;;;9.00;96.33;99398.27;1860251;77;20871;-87
2022/11/17 03:57:19;;;;;;;20.12;14.03;;;;;;;9.02;96.46;99402.92;1860091;77;20903;-87
2022/11/17 04:00:02;;;;;;;24.00;14.13;;;;;;;9.03;96.51;99399.37;1860204;77;20899;-88
2022/11/17 04:02:31;;;;;;;22.20;13.90;;;;;;;9.04;96.53;99399.23;1857346;77;21242;-86
2022/11/17 04:05:06;;;;;;;21.80;14.45;;;;;;;9.06;96.61;99393.91;1860174;76;20867;-87
2022/11/17 04:07:36;;;;;;;21.97;14.53;;;;;;;9.07;96.62;99391.19;1860132;77;20907;-86
2022/11/17 04:10:04;;;;;;;22.58;14.30;;;;;;;9.08;96.58;99393.32;1860065;77;21552;-87
2022/11/17 04:18:06;;;;;;;24.20;13.20;;;;;;;9.07;96.77;99392.50;1860095;77;21432;-86
2022/11/17 04:20:36;;;;;;;23.62;13.55;;;;;;;9.07;96.82;99396.87;1860346;77;20848;-86
2022/11/17 04:23:07;;;;;;;21.60;15.23;;;;;;;9.04;96.83;99395.31;1860287;77;20946;-86
2022/11/17 04:28:38;;;;;;;21.62;13.50;;;;;;;9.01;97.16;99394.25;1805947;77;21296;-86
2022/11/17 04:31:24;;;;;;;19.62;13.15;;;;;;;9.01;97.29;99389.50;1860304;77;21009;-87
2022/11/17 04:33:59;;;;;;;18.92;13.25;;;;;;;9.02;97.43;99395.07;1859218;77;20840;-87
2022/11/17 04:36:42;;;;;;;14.18;10.05;;;;;;;9.01;97.49;99396.86;1860114;76;20919;-88
2022/11/17 04:39:10;;;;;;;14.43;9.83;;;;;;;9.02;97.60;99395.90;1850966;77;20869;-87
2022/11/17 04:44:30;;;;;;;17.92;13.15;;;;;;;9.04;97.66;99394.48;1849629;77;20846;-87
2022/11/17 04:46:57;;;;;;;16.62;12.05;;;;;;;9.04;97.68;99390.09;1849591;77;20838;-87
2022/11/17 04:49:25;;;;;;;15.72;12.65;;;;;;;9.06;97.67;99389.50;1849545;77;20893;-87
2022/11/17 04:51:52;;;;;;;18.17;14.40;;;;;;;9.07;97.68;99399.48;1850036;77;20946;-87
2022/11/17 04:54:22;;;;;;;17.95;12.78;;;;;;;9.07;97.69;99396.42;1850202;77;21387;-87
2022/11/17 04:56:49;;;;;;;12.28;10.32;;;;;;;9.08;97.59;99399.86;1849781;77;21366;-86
2022/11/17 04:59:16;;;;;;;15.60;11.05;;;;;;;9.08;97.63;99397.25;1852089;77;20976;-87
2022/11/17 05:01:45;;;;;;;12.95;10.35;;;;;;;9.08;97.57;99390.70;1850981;77;20972;-88
2022/11/17 05:04:54;;;;;;;13.80;11.10;;;;;;;9.08;97.62;99398.07;1852036;77;20980;-88
2022/11/17 05:06:44;;;;;;;15.48;9.80;;;;;;;9.10;97.63;99398.80;1847889;77;21211;-87
2022/11/17 05:09:14;;;;;;;12.28;8.55;;;;;;;9.12;97.64;99397.38;1824875;77;20976;-87
2022/11/17 05:14:28;;;;;;;13.28;9.63;;;;;;;9.12;97.52;99399.52;1850791;76;20917;-86
2022/11/17 05:17:03;;;;;;;13.00;9.85;;;;;;;9.13;97.56;99402.96;1851034;77;20936;-85
2022/11/17 05:19:37;;;;;;;21.23;13.50;;;;;;;9.15;97.49;99404.16;1850487;77;21212;-87
2022/11/17 05:23:52;;;;;;;18.10;11.45;;;;;;;9.15;97.47;99408.09;1780048;80;21067;-87
2022/11/17 05:24:32;;;;;;;18.90;12.25;;;;;;;9.15;97.43;99410.70;1791935;79;20923;-87
2022/11/17 05:26:58;;;;;;;21.05;12.28;;;;;;;9.16;97.34;99409.74;1793794;78;20887;-87
2022/11/17 05:29:25;;;;;;;20.90;12.15;;;;;;;9.15;97.24;99408.91;1796209;78;20933;-87
2022/11/17 05:31:52;;;;;;;18.77;11.30;;;;;;;9.14;97.21;99412.49;1795933;78;21238;-87
2022/11/17 05:34:19;;;;;;;22.98;12.63;;;;;;;9.13;97.20;99411.63;1793958;79;21349;-87
2022/11/17 05:36:46;;;;;;;20.72;10.85;;;;;;;9.13;97.18;99404.27;1796064;80;20885;-89
2022/11/17 05:39:13;;;;;;;23.05;12.73;;;;;;;9.11;97.13;99410.94;1799141;79;20946;-88
2022/11/17 05:41:42;;;;;;;21.02;11.43;;;;;;;9.11;97.09;99417.92;1800507;79;21266;-86
2022/11/17 05:44:07;;;;;;;25.30;12.23;;;;;;;9.10;97.00;99428.05;1799859;78;21114;-90
2022/11/17 05:46:34;;;;;;;28.02;13.08;;;;;;;9.10;97.04;99424.12;1799957;79;20911;-88
2022/11/17 05:49:01;;;;;;;21.97;12.13;;;;;;;9.10;97.05;99429.35;1800299;79;21326;-88
2022/11/17 05:51:27;;;;;;;25.27;12.28;;;;;;;9.09;97.04;99423.30;1801255;79;20867;-88
2022/11/17 05:53:54;;;;;;;25.68;13.45;;;;;;;9.10;97.01;99422.33;1803190;77;20910;-90
2022/11/17 05:56:33;;;;;;;24.27;14.33;;;;;;;9.12;97.02;99426.16;1803096;77;21143;-87
2022/11/17 05:59:32;;;;;;;32.85;16.37;;;;;;;9.15;97.03;99423.30;1802902;77;20914;-88
2022/11/17 06:02:09;;;;;;;29.12;13.85;;;;;;;9.16;96.89;99422.82;1801209;77;21290;-89
2022/11/17 06:04:37;;;;;;;31.15;14.78;;;;;;;9.15;96.81;99423.30;1769589;79;20911;-88
2022/11/17 06:07:03;;;;;;;28.57;14.33;;;;;;;9.17;96.77;99429.73;1800308;79;21309;-89
2022/11/17 06:09:35;;;;;;;27.82;14.25;;;;;;;9.17;96.64;99430.56;1800179;79;21452;-89
2022/11/17 06:12:04;;;;;;;29.20;14.80;;;;;;;9.19;96.56;99433.08;1800167;79;21562;-88
2022/11/17 06:14:31;;;;;;;26.00;14.00;;;;;;;9.19;96.50;99432.59;1800678;79;20880;-88
2022/11/17 06:17:01;;;;;;;26.55;11.97;;;;;;;9.19;96.40;99431.28;1800492;79;20832;-88
2022/11/17 06:19:35;;;;;;;25.62;13.30;;;;;;;9.20;96.32;99426.88;1800804;79;20854;-90
2022/11/17 06:22:07;;;;;;;22.48;12.03;;;;;;;9.18;96.29;99426.16;1800332;79;21143;-89
2022/11/17 06:24:36;;;;;;;30.85;12.85;;;;;;;9.19;96.27;99423.92;1769883;79;20946;-88
2022/11/17 06:27:03;;;;;;;28.50;14.25;;;;;;;9.16;96.15;99424.98;1800317;79;20899;-88
2022/11/17 06:29:31;;;;;;;26.48;12.90;;;;;;;9.17;96.12;99424.50;1770524;79;20907;-87
2022/11/17 06:31:57;;;;;;;23.98;11.73;;;;;;;9.14;96.10;99419.03;1802527;79;20895;-86
2022/11/17 06:34:25;;;;;;;26.97;13.70;;;;;;;9.13;96.05;99417.34;1802468;79;21111;-86
2022/11/17 06:36:52;;;;;;;28.92;14.55;;;;;;;9.13;96.02;99412.94;1800920;79;21310;-87
2022/11/17 06:39:21;;;;;;;29.45;14.63;;;;;;;9.11;95.96;99408.33;1801819;79;20882;-86
2022/11/17 06:41:47;;;;;;;29.67;14.47;;;;;;;9.12;96.01;99407.36;1802082;79;20891;-89
2022/11/17 06:44:14;;;;;;;32.80;14.98;;;;;;;9.13;95.96;99404.27;1801310;79;20950;-89
2022/11/17 06:46:42;;;;;;;31.10;16.32;;;;;;;9.12;95.95;99402.13;1802362;79;21236;-88
2022/11/17 06:49:11;;;;;;;33.78;16.23;;;;;;;9.13;95.94;99401.66;1802454;79;20855;-87
2022/11/17 06:51:38;;;;;;;29.70;17.17;;;;;;;9.13;95.97;99407.71;1802007;79;20859;-88
2022/11/17 06:54:08;;;;;;;33.80;16.60;;;;;;;9.16;95.97;99416.28;1801010;79;20918;-89
2022/11/17 06:56:35;;;;;;;29.57;14.78;;;;;;;9.17;95.91;99412.73;1801494;79;20871;-89
2022/11/17 06:59:02;;;;;;;30.65;14.33;;;;;;;9.18;95.92;99410.47;1800864;79;21263;-90
2022/11/17 07:01:30;;;;;;;26.60;13.85;;;;;;;9.18;95.86;99407.85;1800912;79;20850;-91
2022/11/17 07:03:57;;;;;;;24.45;12.33;;;;;;;9.17;95.80;99414.05;1800444;79;21364;-89
2022/11/17 07:06:24;;;;;;;23.62;12.30;;;;;;;9.16;95.72;99409.74;1800812;79;20935;-89
2022/11/17 07:08:51;;;;;;;18.62;11.00;;;;;;;9.16;95.75;99407.13;1800777;79;20804;-90
2022/11/17 07:11:20;;;;;;;18.92;11.55;;;;;;;9.17;95.85;99408.33;1800524;79;21037;-89
2022/11/17 07:13:49;;;;;;;17.12;10.75;;;;;;;9.20;95.86;99400.73;1769418;79;20906;-90
2022/11/17 07:16:19;;;;;;;19.62;11.50;;;;;;;9.22;95.94;99412.73;1800572;79;20891;-89
2022/11/17 07:18:47;;;;;;;17.92;11.93;;;;;;;9.25;95.93;99419.07;1800530;79;20871;-89
2022/11/17 07:21:14;;;;;;;14.78;10.03;;;;;;;9.27;95.88;99418.94;1800622;79;20950;-90
2022/11/17 07:23:44;;;;;;;17.73;10.85;;;;;;;9.28;95.84;99418.83;1800536;79;21247;-88
2022/11/17 07:26:13;;;;;;;16.57;9.33;;;;;;;9.30;95.71;99417.42;1800570;79;21720;-89
2022/11/17 07:28:40;;;;;;;13.62;10.78;;;;;;;9.31;95.71;99419.91;1800431;79;20824;-88
2022/11/17 07:31:09;;;;;;;11.78;7.80;;;;;;;9.32;95.65;99418.97;1800037;79;21416;-90
2022/11/17 07:33:36;;;;;;;13.98;10.20;;;;;;;9.34;95.57;99418.88;1800333;79;20879;-90
2022/11/17 07:36:08;;;;;;;14.60;10.70;;;;;;;9.35;95.57;99423.14;1800142;79;20950;-87
2022/11/17 07:38:35;;;;;;;14.28;10.40;;;;;;;9.37;95.52;99417.80;1797754;79;20959;-89
2022/11/17 07:41:03;;;;;;;13.38;10.25;;;;;;;9.39;95.46;99420.66;1794331;80;21428;-89
2022/11/17 07:43:30;;;;;;;12.93;8.63;;;;;;;9.40;95.44;99419.70;1793285;78;20864;-89
2022/11/17 07:46:00;;;;;;;8.58;7.62;;;;;;;9.41;95.42;99416.15;1793887;78;20943;-88
2022/11/17 07:48:29;;;;;;;9.20;7.87;;;;;;;9.43;95.38;99420.80;1793768;80;20981;-89
2022/11/17 07:51:00;;;;;;;18.05;10.63;;;;;;;9.45;95.38;99421.52;1767468;80;20926;-87
2022/11/17 07:53:26;;;;;;;14.98;11.22;;;;;;;9.46;95.19;99428.41;1793866;78;20891;-89
2022/11/17 07:55:54;;;;;;;12.58;11.03;;;;;;;9.46;95.07;99423.66;1793581;80;20947;-88
2022/11/17 07:58:24;;;;;;;11.65;9.10;;;;;;;9.46;95.13;99423.66;1793591;78;20887;-88
2022/11/17 08:00:50;;;;;;;8.88;7.55;;;;;;;9.44;95.16;99426.38;1793854;78;22230;-89
2022/11/17 08:03:17;;;;;;;9.25;8.00;;;;;;;9.44;95.13;99430.78;1794555;78;20891;-87
2022/11/17 08:05:45;;;;;;;9.50;8.18;;;;;;;9.44;95.21;99436.84;1795480;78;21389;-89
2022/11/17 08:08:12;;;;;;;14.05;8.95;;;;;;;9.44;95.21;99432.09;1794968;78;20883;-88
2022/11/17 08:10:39;;;;;;;14.83;10.20;;;;;;;9.43;95.11;99432.57;1795037;80;21401;-88
2022/11/17 08:13:06;;;;;;;14.65;10.05;;;;;;;9.44;95.12;99423.76;1793879;78;21118;-87
2022/11/17 08:15:34;;;;;;;10.88;9.73;;;;;;;9.44;95.19;99419.83;1793528;80;21545;-87
2022/11/17 08:18:03;;;;;;;11.90;8.40;;;;;;;9.45;95.15;99421.52;1793623;80;20891;-89
2022/11/17 08:20:31;;;;;;;6.80;6.17;;;;;;;9.45;95.14;99420.20;1793440;78;21021;-88
2022/11/17 08:22:58;;;;;;;6.80;5.37;;;;;;;9.45;95.05;99419.35;1794468;80;20895;-86
2022/11/17 08:25:27;;;;;;;6.00;4.83;;;;;;;9.45;95.14;99418.05;1794264;78;20908;-89
2022/11/17 08:27:57;;;;;;;8.25;5.30;;;;;;;9.44;94.95;99415.08;1793306;80;20880;-89
2022/11/17 08:30:24;;;;;;;6.05;4.97;;;;;;;9.44;94.95;99415.91;1793570;80;21026;-87
2022/11/17 08:32:52;;;;;;;8.65;4.50;;;;;;;9.44;94.87;99418.52;1793431;80;20879;-86
2022/11/17 08:35:23;;;;;;;5.28;4.45;;;;;;;9.44;94.84;99409.37;1793544;80;20914;-88
2022/11/17 08:37:50;;;;;;;7.17;4.72;;;;;;;9.44;94.82;99414.60;1793556;80;21127;-89
2022/11/17 08:40:17;;;;;;;5.25;4.17;;;;;;;9.46;94.78;99406.64;1793291;78;21065;-89
2022/11/17 08:42:46;;;;;;;5.97;4.72;;;;;;;9.45;94.64;99416.28;1793377;80;20919;-87
2022/11/17 08:45:13;;;;;;;6.53;4.67;;;;;;;9.45;94.63;99416.73;1793287;80;20974;-87
2022/11/17 08:47:39;;;;;;;11.75;6.55;;;;;;;9.45;94.67;99414.98;1793484;80;20955;-88
2022/11/17 08:50:07;;;;;;;6.47;5.53;;;;;;;9.45;94.53;99418.91;1793448;80;21858;-88
2022/11/17 08:52:33;;;;;;;8.93;6.37;;;;;;;9.47;94.54;99427.92;1793335;80;20879;-90
2022/11/17 08:55:01;;;;;;;5.12;4.65;;;;;;;9.46;94.45;99430.20;1793561;80;20915;-87
2022/11/17 08:57:31;;;;;;;6.08;5.30;;;;;;;9.42;93.99;99434.81;1793465;80;20907;-88
2022/11/17 08:59:57;;;;;;;6.33;4.85;;;;;;;9.34;93.77;99433.26;1794372;78;20872;-88
2022/11/17 09:02:25;;;;;;;9.75;6.35;;;;;;;9.27;93.41;99432.88;1796905;77;21096;-88
2022/11/17 09:04:52;;;;;;;4.47;3.40;;;;;;;9.19;93.26;99435.69;1796802;77;20950;-87
2022/11/17 09:07:21;;;;;;;3.70;3.40;;;;;;;9.11;92.88;99433.17;1795690;77;20911;-91
2022/11/17 09:09:47;;;;;;;5.58;4.15;;;;;;;9.03;92.78;99430.27;1795185;77;21373;-89
2022/11/17 09:12:14;;;;;;;5.28;4.78;;;;;;;8.97;92.67;99429.40;1794178;80;20923;-88
2022/11/17 09:14:48;;;;;;;5.50;4.10;;;;;;;8.93;92.75;99427.95;1795037;80;20931;-88
2022/11/17 09:17:14;;;;;;;5.85;5.12;;;;;;;8.90;93.01;99425.09;1793813;80;20923;-88
2022/11/17 09:19:40;;;;;;;4.70;4.10;;;;;;;8.89;93.25;99431.28;1793580;78;20882;-88
2022/11/17 09:22:09;;;;;;;4.33;3.95;;;;;;;8.90;93.42;99422.47;1793668;78;20942;-89
2022/11/17 09:24:36;;;;;;;4.40;4.00;;;;;;;8.91;93.35;99421.55;1793613;78;21423;-89
2022/11/17 09:27:03;;;;;;;4.85;3.92;;;;;;;8.87;93.09;99421.84;1793719;78;21392;-88
2022/11/17 09:29:30;;;;;;;6.10;5.03;;;;;;;8.77;93.21;99426.92;1794096;80;20906;-88
2022/11/17 09:31:58;;;;;;;6.00;5.40;;;;;;;8.74;93.40;99424.53;1793747;79;21384;-88
2022/11/17 09:34:28;;;;;;;4.55;4.15;;;;;;;8.74;93.70;99419.75;1793317;78;20969;-88
2022/11/17 09:36:54;;;;;;;4.30;3.98;;;;;;;8.76;93.92;99421.79;1794093;78;20906;-88
2022/11/17 09:39:21;;;;;;;4.08;3.77;;;;;;;8.75;93.80;99422.75;1801542;78;21131;-86
2022/11/17 09:41:50;;;;;;;4.08;3.70;;;;;;;8.76;93.94;99429.19;1819633;79;20877;-87
2022/11/17 09:44:39;;;;;;;3.08;2.67;;;;;;;8.79;94.05;99432.05;1820354;78;21438;-87
2022/11/17 09:47:40;;;;;;;3.40;2.87;;;;;;;8.81;93.85;99431.47;1820190;78;21019;-87
2022/11/17 09:50:34;;;;;;;3.92;3.62;;;;;;;8.82;93.71;99429.20;1820382;79;20925;-87
2022/11/17 09:53:37;;;;;;;3.75;2.92;;;;;;;8.86;93.67;99435.88;1820561;78;21228;-86
2022/11/17 09:56:07;;;;;;;2.85;2.62;;;;;;;8.87;93.42;99437.09;1819801;78;20964;-89
2022/11/17 09:58:50;;;;;;;6.87;3.42;;;;;;;8.89;93.29;99432.59;1820146;78;20909;-87
2022/11/17 10:01:20;;;;;;;3.60;3.30;;;;;;;8.85;92.99;99432.44;1817814;78;20901;-88
2022/11/17 10:03:49;;;;;;;2.58;2.37;;;;;;;8.82;92.91;99444.41;1820784;78;20976;-88
2022/11/17 10:06:22;;;;;;;8.63;2.95;;;;;;;8.75;92.73;99445.80;1821804;79;21137;-88
2022/11/17 10:09:23;;;;;;;3.05;2.60;;;;;;;8.70;92.92;99450.05;1820230;78;20842;-89
2022/11/17 10:11:50;;;;;;;5.00;4.50;;;;;;;8.70;92.90;99455.75;1820002;78;21441;-87
2022/11/17 10:14:20;;;;;;;6.33;4.53;;;;;;;8.62;92.51;99449.74;1820302;78;20909;-87
2022/11/17 10:16:56;;;;;;;4.22;3.60;;;;;;;8.54;92.42;99443.38;1790788;78;20881;-87
2022/11/17 10:19:30;;;;;;;4.40;3.72;;;;;;;8.52;92.74;99441.38;1820047;78;21485;-88
2022/11/17 10:22:06;;;;;;;5.00;4.03;;;;;;;8.49;92.66;99445.02;1819750;78;20920;-87
2022/11/17 10:24:42;;;;;;;33.63;5.78;;;;;;;8.45;92.40;99446.20;1818915;78;21046;-87
2022/11/17 10:27:30;;;;;;;3.72;3.30;;;;;;;8.43;92.70;99450.22;1819776;78;20929;-89
2022/11/17 10:30:21;;;;;;;3.90;3.55;;;;;;;8.45;92.71;99452.73;1820156;78;20933;-87
2022/11/17 10:32:56;;;;;;;4.15;3.62;;;;;;;8.45;92.53;99442.28;1819825;78;21078;-89
2022/11/17 10:35:33;;;;;;;4.78;3.98;;;;;;;8.42;92.22;99439.39;1819856;78;20877;-87
2022/11/17 10:38:07;;;;;;;3.98;3.50;;;;;;;8.40;92.32;99446.94;1820016;78;21323;-89
2022/11/17 10:40:45;;;;;;;3.70;3.40;;;;;;;8.39;92.38;99442.67;1810493;78;21019;-88
2022/11/17 10:43:17;;;;;;;5.30;3.22;;;;;;;8.35;92.22;99442.04;1818261;78;20925;-90
2022/11/17 10:45:53;;;;;;;3.47;3.17;;;;;;;8.33;92.37;99453.06;1818136;79;21180;-88
2022/11/17 10:48:37;;;;;;;5.60;3.50;;;;;;;8.29;92.20;99448.55;1817887;79;21311;-89
2022/11/17 10:51:21;;;;;;;3.45;3.15;;;;;;;8.21;91.88;99451.31;1818311;78;21529;-88
2022/11/17 10:54:17;;;;;;;3.83;3.20;;;;;;;8.12;92.00;99443.64;1817949;78;21482;-87
2022/11/17 10:56:47;;;;;;;4.20;3.65;;;;;;;8.08;92.15;99435.65;1818080;78;20937;-87
2022/11/17 10:59:25;;;;;;;4.72;3.80;;;;;;;8.04;92.34;99435.02;1817970;79;21126;-87
2022/11/17 11:01:51;;;;;;;5.50;4.50;;;;;;;8.03;92.48;99442.50;1813083;78;20921;-88
2022/11/17 11:04:33;;;;;;;5.35;4.08;;;;;;;8.01;92.46;99448.29;1818091;78;21442;-88
2022/11/17 11:07:17;;;;;;;4.58;4.15;;;;;;;7.97;92.40;99462.48;1818405;78;20933;-87
2022/11/17 11:10:19;;;;;;;7.03;4.55;;;;;;;7.93;92.54;99458.88;1817465;78;20996;-87
2022/11/17 11:13:11;;;;;;;7.15;4.87;;;;;;;7.88;92.44;99465.72;1819433;78;21284;-88
2022/11/17 11:15:39;;;;;;;7.40;4.67;;;;;;;7.86;92.67;99473.65;1819122;78;21387;-88
2022/11/17 11:18:13;;;;;;;9.43;4.65;;;;;;;7.80;92.33;99468.86;1819323;78;21451;-87
2022/11/17 11:21:07;;;;;;;7.27;5.90;;;;;;;7.75;92.21;99460.96;1817930;78;20854;-88
2022/11/17 11:23:45;;;;;;;10.03;5.22;;;;;;;7.70;92.04;99459.14;1818318;78;21243;-91
2022/11/17 11:26:51;;;;;;;4.62;4.03;;;;;;;7.65;92.21;99452.92;1804818;77;21152;-88
2022/11/17 11:29:46;;;;;;;7.35;4.20;;;;;;;7.62;92.34;99459.16;1819021;78;20897;-88
2022/11/17 11:32:37;;;;;;;7.20;4.25;;;;;;;7.58;92.24;99465.54;1795090;78;20928;-88
2022/11/17 11:35:32;;;;;;;6.35;4.42;;;;;;;7.50;91.90;99468.28;1818173;78;20968;-87
2022/11/17 11:38:13;;;;;;;11.30;4.35;;;;;;;7.37;91.80;99462.55;1794803;78;20874;-88
2022/11/17 11:40:44;;;;;;;6.40;4.03;;;;;;;7.30;92.14;99474.33;1819342;77;21269;-88
2022/11/17 11:43:43;;;;;;;7.05;4.92;;;;;;;7.27;92.18;99474.54;1791843;79;20961;-87
2022/11/17 11:46:30;;;;;;;5.25;3.70;;;;;;;7.24;92.40;99472.11;1819887;78;20896;-88
2022/11/17 11:48:56;;;;;;;8.23;4.35;;;;;;;7.21;92.49;99466.63;1821096;79;20924;-88
2022/11/17 11:51:29;;;;;;;9.38;4.65;;;;;;;7.18;92.50;99467.28;1819950;79;20883;-89
2022/11/17 11:54:05;;;;;;;14.58;4.58;;;;;;;7.17;92.62;99463.02;1819738;79;21425;-88
2022/11/17 11:56:35;;;;;;;9.90;4.80;;;;;;;7.14;92.73;99461.92;1820186;78;20903;-90
2022/11/17 11:59:13;;;;;;;11.43;5.17;;;;;;;7.14;92.69;99481.48;1820058;79;20996;-88
2022/11/17 12:02:13;;;;;;;6.28;5.15;;;;;;;7.10;92.53;99486.52;1820160;78;21029;-89
2022/11/17 12:05:00;;;;;;;13.20;6.90;;;;;;;7.04;92.48;99487.73;1820097;79;20911;-89
2022/11/17 12:07:54;;;;;;;11.18;5.12;;;;;;;7.02;92.72;99486.98;1812293;78;21901;-87
2022/11/17 12:10:56;;;;;;;5.50;4.62;;;;;;;6.98;92.70;99477.69;1822550;77;20883;-89
2022/11/17 12:13:23;;;;;;;6.87;4.25;;;;;;;6.96;92.67;99480.84;1823414;77;20950;-87
2022/11/17 12:15:52;;;;;;;7.70;4.92;;;;;;;6.90;92.58;99483.87;1823304;77;20888;-89
2022/11/17 12:18:29;;;;;;;5.58;4.28;;;;;;;6.86;92.41;99481.91;1820267;77;20907;-90
2022/11/17 12:21:09;;;;;;;4.55;3.90;;;;;;;6.82;92.33;99473.91;1820864;79;21415;-89
2022/11/17 12:23:59;;;;;;;7.60;5.90;;;;;;;6.76;92.19;99469.94;1809882;77;21002;-90
2022/11/17 12:26:28;;;;;;;6.28;5.33;;;;;;;6.70;92.07;99462.97;1820895;79;20959;-88